createdAt,value
2023-02-24T00:02:59.304Z,100.00
2023-02-24T00:06:03.582Z,100.00
2023-02-24T00:09:06.928Z,100.00
2023-02-24T00:12:10.739Z,100.00
2023-02-24T00:15:15.221Z,100.00
2023-02-24T00:18:17.058Z,100.00
2023-02-24T00:21:19.367Z,100.00
2023-02-24T00:24:21.777Z,100.00
2023-02-24T00:27:23.550Z,100.00
2023-02-24T00:30:28.434Z,100.00
2023-02-24T00:33:30.983Z,100.00
2023-02-24T00:36:34.101Z,100.00
2023-02-24T00:39:36.589Z,100.00
2023-02-24T00:42:39.970Z,100.00
2023-02-24T00:45:43.310Z,100.00
2023-02-24T00:48:45.981Z,100.00
2023-02-24T00:51:48.855Z,100.00
2023-02-24T00:54:51.271Z,100.00
2023-02-24T00:57:52.932Z,100.00
2023-02-24T01:00:56.334Z,100.00
2023-02-24T01:03:58.765Z,100.00
2023-02-24T01:07:00.710Z,100.00
2023-02-24T01:10:02.436Z,100.00
2023-02-24T01:13:04.322Z,100.00
2023-02-24T01:16:07.736Z,100.00
2023-02-24T01:22:29.900Z,100.00
2023-02-24T01:25:31.798Z,100.00
2023-02-24T01:28:33.436Z,100.00
2023-02-24T01:31:38.754Z,100.00
2023-02-24T01:34:43.443Z,100.00
2023-02-24T01:37:45.794Z,100.00
2023-02-24T01:40:55.238Z,100.00
2023-02-24T01:43:58.991Z,100.00
2023-02-24T01:47:04.082Z,100.00
2023-02-24T01:50:06.181Z,100.00
2023-02-24T01:53:08.696Z,100.00
2023-02-24T01:56:13.689Z,100.00
2023-02-24T01:59:16.241Z,100.00
2023-02-24T02:02:19.999Z,100.00
2023-02-24T02:05:22.660Z,100.00
2023-02-24T02:08:24.858Z,100.00
2023-02-24T02:11:28.458Z,100.00
2023-02-24T02:14:31.196Z,100.00
2023-02-24T02:17:37.477Z,100.00
2023-02-24T02:21:09.239Z,100.00
2023-02-24T02:24:20.873Z,100.00
2023-02-24T02:27:33.751Z,100.00
2023-02-24T02:30:43.969Z,100.00
2023-02-24T02:34:01.647Z,100.00
2023-02-24T02:37:09.959Z,100.00
2023-02-24T02:40:21.781Z,100.00
2023-02-24T02:43:27.500Z,100.00
2023-02-24T02:46:35.417Z,100.00
2023-02-24T02:49:41.863Z,100.00
2023-02-24T02:52:47.611Z,100.00
2023-02-24T02:55:53.562Z,100.00
2023-02-24T02:58:56.703Z,100.00
2023-02-24T03:02:11.438Z,100.00
2023-02-24T03:05:20.256Z,100.00
2023-02-24T03:08:25.804Z,100.00
2023-02-24T03:11:27.690Z,100.00
2023-02-24T03:14:33.349Z,100.00
2023-02-24T03:17:41.337Z,100.00
2023-02-24T03:20:47.479Z,100.00
2023-02-24T03:23:50.668Z,100.00
2023-02-24T03:26:59.843Z,100.00
2023-02-24T03:30:07.217Z,100.00
2023-02-24T03:33:11.771Z,100.00
2023-02-24T03:36:15.426Z,100.00
2023-02-24T03:39:17.116Z,100.00
2023-02-24T03:42:42.097Z,100.00
2023-02-24T03:45:43.877Z,100.00
2023-02-24T03:48:47.995Z,100.00
2023-02-24T03:51:57.065Z,100.00
2023-02-24T03:55:15.280Z,100.00
2023-02-24T03:58:18.730Z,100.00
2023-02-24T04:01:25.473Z,100.00
2023-02-24T04:04:33.096Z,100.00
2023-02-24T04:07:53.174Z,100.00
2023-02-24T04:10:59.654Z,100.00
2023-02-24T04:14:08.065Z,100.00
2023-02-24T04:17:14.144Z,100.00
2023-02-24T04:20:20.426Z,100.00
2023-02-24T04:23:38.636Z,100.00
2023-02-24T04:26:41.311Z,100.00
2023-02-24T04:29:47.294Z,100.00
2023-02-24T04:32:51.020Z,100.00
2023-02-24T04:35:53.488Z,100.00
2023-02-24T04:39:00.295Z,100.00
2023-02-24T04:42:01.920Z,100.00
2023-02-24T04:45:09.960Z,100.00
2023-02-24T04:48:14.387Z,100.00
2023-02-24T04:51:16.017Z,100.00
2023-02-24T04:54:19.635Z,100.00
2023-02-24T04:57:21.410Z,100.00
2023-02-24T05:00:26.501Z,100.00
2023-02-24T05:03:30.184Z,100.00
2023-02-24T05:06:32.094Z,100.00
2023-02-24T05:09:35.011Z,100.00
2023-02-24T05:12:39.982Z,100.00
2023-02-24T05:15:42.643Z,100.00
2023-02-24T05:18:47.512Z,100.00
2023-02-24T05:21:49.096Z,100.00
2023-02-24T05:24:52.201Z,100.00
2023-02-24T05:27:53.859Z,100.00
2023-02-24T05:30:56.361Z,100.00
2023-02-24T05:33:58.898Z,100.00
2023-02-24T05:37:01.868Z,100.00
2023-02-24T05:40:05.319Z,99.58
2023-02-24T05:43:06.901Z,100.00
2023-02-24T05:46:08.578Z,98.37
2023-02-24T05:49:14.465Z,98.80
2023-02-24T05:52:16.064Z,99.20
2023-02-24T05:55:19.011Z,99.34
2023-02-24T05:58:21.003Z,98.19
2023-02-24T06:01:22.843Z,97.94
2023-02-24T06:04:39.841Z,98.51
2023-02-24T06:07:43.192Z,98.50
2023-02-24T06:10:47.398Z,97.90
2023-02-24T06:13:49.191Z,97.61
2023-02-24T06:16:51.070Z,96.42
2023-02-24T06:19:55.917Z,97.94
2023-02-24T06:22:58.414Z,97.51
2023-02-24T06:26:04.748Z,96.33
2023-02-24T06:29:06.473Z,97.41
2023-02-24T06:32:11.168Z,96.66
2023-02-24T06:35:12.801Z,96.92
2023-02-24T06:38:17.166Z,97.03
2023-02-24T06:41:20.601Z,97.96
2023-02-24T06:44:24.446Z,96.39
2023-02-24T06:47:27.038Z,98.21
2023-02-24T06:50:28.997Z,97.90
2023-02-24T06:53:31.815Z,98.63
2023-02-24T06:56:38.766Z,98.32
2023-02-24T06:59:41.245Z,98.57
2023-02-24T07:02:42.852Z,99.19
2023-02-24T07:05:50.208Z,99.93
2023-02-24T07:08:52.858Z,100.00
2023-02-24T07:11:56.803Z,99.67
2023-02-24T07:14:59.040Z,99.48
2023-02-24T07:18:00.713Z,99.38
2023-02-24T07:21:05.317Z,99.51
2023-02-24T07:24:07.268Z,99.16
2023-02-24T07:27:12.089Z,99.11
2023-02-24T07:30:15.798Z,98.81
2023-02-24T07:33:19.370Z,99.06
2023-02-24T07:36:23.483Z,99.03
2023-02-24T07:39:25.853Z,98.92
2023-02-24T07:42:30.731Z,97.83
2023-02-24T07:45:32.321Z,97.74
2023-02-24T07:48:34.986Z,97.72
2023-02-24T07:51:38.931Z,98.51
2023-02-24T07:54:40.616Z,97.14
2023-02-24T07:57:46.668Z,97.33
2023-02-24T08:00:59.709Z,97.46
2023-02-24T08:04:01.480Z,98.18
2023-02-24T08:07:04.218Z,97.15
2023-02-24T08:10:10.578Z,97.16
2023-02-24T08:13:13.483Z,96.51
2023-02-24T08:16:15.122Z,96.25
2023-02-24T08:19:21.100Z,96.91
2023-02-24T08:22:25.883Z,96.55
2023-02-24T08:25:37.192Z,96.18
2023-02-24T08:28:40.606Z,95.65
2023-02-24T08:31:43.349Z,96.23
2023-02-24T08:34:45.434Z,95.65
2023-02-24T08:37:48.087Z,95.94
2023-02-24T08:40:51.331Z,95.15
2023-02-24T08:43:55.576Z,95.37
2023-02-24T08:46:58.041Z,95.02
2023-02-24T08:49:59.977Z,95.28
2023-02-24T08:53:01.565Z,95.77
2023-02-24T08:56:09.808Z,94.88
2023-02-24T08:59:32.400Z,95.52
2023-02-24T09:02:40.370Z,95.73
2023-02-24T09:05:42.235Z,95.75
2023-02-24T09:08:45.480Z,96.15
2023-02-24T09:11:48.165Z,97.49
2023-02-24T09:14:55.365Z,99.70
2023-02-24T09:18:07.397Z,100.00
2023-02-24T09:21:36.600Z,100.00
2023-02-24T09:24:38.305Z,100.00
2023-02-24T09:27:42.389Z,100.00
2023-02-24T09:30:53.606Z,100.00
2023-02-24T09:33:55.444Z,100.00
2023-02-24T09:37:03.553Z,100.00
2023-02-24T09:40:20.882Z,100.00
2023-02-24T09:43:24.665Z,100.00
2023-02-24T09:46:27.947Z,100.00
2023-02-24T09:49:40.040Z,100.00
2023-02-24T09:52:42.097Z,100.00
2023-02-24T09:56:00.668Z,100.00
2023-02-24T09:59:11.577Z,100.00
2023-02-24T10:13:13.789Z,100.00
2023-02-24T10:16:16.803Z,100.00
2023-02-24T10:19:24.256Z,100.00
2023-02-24T10:22:40.588Z,100.00
2023-02-24T10:25:53.882Z,100.00
2023-02-24T10:29:02.650Z,100.00
2023-02-24T10:32:17.134Z,100.00
2023-02-24T10:35:19.552Z,100.00
2023-02-24T10:38:21.635Z,100.00
2023-02-24T10:41:29.306Z,100.00
2023-02-24T10:44:36.506Z,100.00
2023-02-24T10:47:44.418Z,100.00
2023-02-24T10:50:55.711Z,100.00
2023-02-24T10:54:27.455Z,100.00
2023-02-24T10:57:44.779Z,100.00
2023-02-24T11:01:13.198Z,100.00
2023-02-24T11:04:38.944Z,100.00
2023-02-24T11:07:53.949Z,100.00
2023-02-24T11:11:07.070Z,100.00
2023-02-24T11:14:35.830Z,100.00
2023-02-24T11:17:46.209Z,100.00
2023-02-24T11:20:50.385Z,100.00
2023-02-24T11:23:53.394Z,100.00
2023-02-24T11:26:55.207Z,100.00
2023-02-24T11:30:06.462Z,100.00
2023-02-24T11:33:26.148Z,100.00
2023-02-24T11:36:34.734Z,100.00
2023-02-24T11:39:50.526Z,100.00
2023-02-24T11:42:53.591Z,100.00
2023-02-24T11:46:01.038Z,100.00
2023-02-24T11:49:08.751Z,100.00
2023-02-24T11:52:14.339Z,100.00
2023-02-24T11:55:22.617Z,100.00
2023-02-24T11:58:27.337Z,100.00
2023-02-24T12:01:31.286Z,100.00
2023-02-24T12:04:36.330Z,100.00
2023-02-24T12:07:39.989Z,100.00
2023-02-24T12:10:47.643Z,100.00
2023-02-24T12:13:53.016Z,100.00
2023-02-24T12:16:59.403Z,100.00
2023-02-24T12:20:07.328Z,100.00
2023-02-24T12:23:15.927Z,100.00
2023-02-24T12:26:18.861Z,100.00
2023-02-24T12:29:32.563Z,100.00
2023-02-24T12:32:50.803Z,100.00
2023-02-24T12:35:59.601Z,100.00
2023-02-24T12:39:10.377Z,100.00
2023-02-24T12:42:18.377Z,100.00
2023-02-24T12:45:31.370Z,100.00
2023-02-24T12:49:00.269Z,100.00
2023-02-24T12:52:10.517Z,100.00
2023-02-24T12:55:18.742Z,100.00
2023-02-24T12:58:22.417Z,100.00
2023-02-24T13:01:27.458Z,100.00
2023-02-24T13:04:46.884Z,100.00
2023-02-24T13:07:59.392Z,100.00
2023-02-24T13:11:04.924Z,100.00
2023-02-24T13:14:12.698Z,100.00
2023-02-24T13:17:20.154Z,100.00
2023-02-24T13:20:26.743Z,100.00
2023-02-24T13:23:31.749Z,100.00
2023-02-24T13:26:33.503Z,100.00
2023-02-24T13:29:45.575Z,100.00
2023-02-24T13:32:47.805Z,100.00
2023-02-24T13:35:50.411Z,100.00
2023-02-24T13:39:04.384Z,100.00
2023-02-24T13:42:20.402Z,100.00
2023-02-24T13:45:22.271Z,100.00
2023-02-24T13:48:47.902Z,100.00
2023-02-24T13:51:54.828Z,100.00
2023-02-24T13:55:08.715Z,100.00
2023-02-24T13:58:20.509Z,100.00
2023-02-24T14:01:23.390Z,100.00
2023-02-24T14:04:29.298Z,100.00
2023-02-24T14:07:34.173Z,100.00
2023-02-24T14:10:38.934Z,100.00
2023-02-24T14:13:44.865Z,100.00
2023-02-24T14:16:49.793Z,100.00
2023-02-24T14:19:51.810Z,100.00
2023-02-24T14:22:54.775Z,100.00
2023-02-24T14:25:59.271Z,100.00
2023-02-24T14:29:01.641Z,100.00
2023-02-24T14:32:04.615Z,100.00
2023-02-24T14:35:06.601Z,100.00
2023-02-24T14:38:27.294Z,100.00
2023-02-24T14:41:30.316Z,100.00
2023-02-24T14:44:41.741Z,100.00
2023-02-24T14:47:43.531Z,100.00
2023-02-24T14:50:45.122Z,100.00
2023-02-24T14:53:50.253Z,100.00
2023-02-24T14:56:53.884Z,100.00
2023-02-24T14:59:57.189Z,100.00
2023-02-24T15:03:05.803Z,100.00
2023-02-24T15:06:11.795Z,100.00
2023-02-24T15:09:15.835Z,100.00
2023-02-24T15:12:23.263Z,100.00
2023-02-24T15:15:29.351Z,100.00
2023-02-24T15:18:31.240Z,100.00
2023-02-24T15:21:34.713Z,100.00
2023-02-24T15:24:39.346Z,100.00
2023-02-24T15:27:50.929Z,100.00
2023-02-24T15:30:56.967Z,100.00
2023-02-24T15:34:00.440Z,100.00
2023-02-24T15:37:04.630Z,100.00
2023-02-24T15:40:12.833Z,100.00
2023-02-24T15:43:30.652Z,100.00
2023-02-24T15:46:33.435Z,100.00
2023-02-24T15:49:35.272Z,100.00
2023-02-24T15:52:38.328Z,100.00
2023-02-24T15:55:41.399Z,100.00
2023-02-24T15:58:44.830Z,100.00
2023-02-24T16:01:46.682Z,100.00
2023-02-24T16:04:49.071Z,100.00
2023-02-24T16:07:50.867Z,100.00
2023-02-24T16:10:53.919Z,100.00
2023-02-24T16:13:58.441Z,100.00
2023-02-24T16:17:02.239Z,100.00
2023-02-24T16:20:09.209Z,100.00
2023-02-24T16:23:10.728Z,100.00
2023-02-24T16:26:15.332Z,100.00
2023-02-24T16:29:18.512Z,100.00
2023-02-24T16:32:23.788Z,100.00
2023-02-24T16:35:26.428Z,100.00
2023-02-24T16:38:28.104Z,100.00
2023-02-24T16:41:31.192Z,100.00
2023-02-24T16:44:34.236Z,100.00
2023-02-24T16:47:35.980Z,100.00
2023-02-24T16:50:39.761Z,100.00
2023-02-24T16:53:42.010Z,100.00
2023-02-24T16:56:45.228Z,100.00
2023-02-24T16:59:48.187Z,100.00
2023-02-24T17:02:50.238Z,100.00
2023-02-24T17:05:52.011Z,100.00
2023-02-24T17:08:53.817Z,100.00
2023-02-24T17:11:55.709Z,100.00
2023-02-24T17:14:59.396Z,100.00
2023-02-24T17:18:01.086Z,100.00
2023-02-24T17:21:03.490Z,100.00
2023-02-24T17:24:05.440Z,100.00
2023-02-24T17:27:07.872Z,100.00
2023-02-24T17:30:12.748Z,100.00
2023-02-24T17:33:14.810Z,100.00
2023-02-24T17:36:16.515Z,100.00
2023-02-24T17:39:18.094Z,100.00
2023-02-24T17:42:19.687Z,100.00
2023-02-24T17:45:22.792Z,100.00
2023-02-24T17:48:25.475Z,100.00
2023-02-24T17:51:27.922Z,100.00
2023-02-24T17:54:29.672Z,100.00
2023-02-24T17:57:34.157Z,100.00
2023-02-24T18:00:38.546Z,100.00
2023-02-24T18:03:40.186Z,100.00
2023-02-24T18:06:41.994Z,100.00
2023-02-24T18:09:43.577Z,100.00
2023-02-24T18:12:45.257Z,100.00
2023-02-24T18:15:48.385Z,100.00
2023-02-24T18:18:50.028Z,100.00
2023-02-24T18:21:51.759Z,100.00
2023-02-24T18:24:53.328Z,100.00
2023-02-24T18:27:54.895Z,100.00
2023-02-24T18:30:58.352Z,100.00
2023-02-24T18:34:00.482Z,100.00
2023-02-24T18:37:02.401Z,100.00
2023-02-24T18:40:04.439Z,100.00
2023-02-24T18:43:06.058Z,100.00
2023-02-24T18:46:11.214Z,100.00
2023-02-24T18:49:13.486Z,100.00
2023-02-24T18:52:15.061Z,100.00
2023-02-24T18:55:17.978Z,100.00
2023-02-24T18:58:19.559Z,100.00
2023-02-24T19:01:25.797Z,100.00
2023-02-24T19:04:27.693Z,100.00
2023-02-24T19:07:29.320Z,100.00
2023-02-24T19:10:30.984Z,100.00
2023-02-24T19:13:32.615Z,100.00
2023-02-24T19:16:36.451Z,100.00
2023-02-24T19:19:38.558Z,100.00
2023-02-24T19:22:40.274Z,100.00
2023-02-24T19:25:41.932Z,100.00
2023-02-24T19:28:43.708Z,100.00
2023-02-24T19:31:47.263Z,100.00
2023-02-24T19:34:49.139Z,100.00
2023-02-24T19:37:50.877Z,100.00
2023-02-24T19:40:52.569Z,100.00
2023-02-24T19:43:54.270Z,100.00
2023-02-24T19:46:57.211Z,100.00
2023-02-24T19:49:58.929Z,100.00
2023-02-24T19:53:00.545Z,100.00
2023-02-24T19:56:02.555Z,100.00
2023-02-24T19:59:05.389Z,100.00
2023-02-24T20:02:09.713Z,100.00
2023-02-24T20:05:11.586Z,100.00
2023-02-24T20:08:13.439Z,100.00
2023-02-24T20:11:15.197Z,100.00
2023-02-24T20:14:17.733Z,100.00
2023-02-24T20:17:20.780Z,100.00
2023-02-24T20:20:22.639Z,100.00
2023-02-24T20:23:24.614Z,100.00
2023-02-24T20:26:26.875Z,100.00
2023-02-24T20:29:29.508Z,100.00
2023-02-24T20:32:32.770Z,100.00
2023-02-24T20:35:39.899Z,100.00
2023-02-24T20:38:41.919Z,100.00
2023-02-24T20:41:44.148Z,100.00
2023-02-24T20:44:45.794Z,100.00
2023-02-24T20:47:49.098Z,100.00
2023-02-24T20:50:50.960Z,100.00
2023-02-24T20:53:57.685Z,100.00
2023-02-24T20:57:00.292Z,100.00
2023-02-24T21:00:07.368Z,100.00
2023-02-24T21:03:12.444Z,100.00
2023-02-24T21:06:16.207Z,100.00
2023-02-24T21:09:18.171Z,100.00
2023-02-24T21:12:19.991Z,100.00
2023-02-24T21:15:21.882Z,100.00
2023-02-24T21:18:25.175Z,100.00
2023-02-24T21:21:27.004Z,100.00
2023-02-24T21:24:30.586Z,100.00
2023-02-24T21:27:32.189Z,100.00
2023-02-24T21:30:33.847Z,100.00
2023-02-24T21:33:36.916Z,100.00
2023-02-24T21:36:38.491Z,100.00
2023-02-24T21:39:40.154Z,100.00
2023-02-24T21:42:46.772Z,100.00
2023-02-24T21:45:48.381Z,100.00
2023-02-24T21:48:54.466Z,100.00
2023-02-24T21:51:56.056Z,100.00
2023-02-24T21:54:57.973Z,100.00
2023-02-24T21:57:59.582Z,100.00
2023-02-24T22:01:01.856Z,100.00
2023-02-24T22:04:06.048Z,100.00
2023-02-24T22:07:07.642Z,100.00
2023-02-24T22:10:10.229Z,100.00
2023-02-24T22:13:11.889Z,100.00
2023-02-24T22:16:14.878Z,100.00
2023-02-24T22:19:19.894Z,100.00
2023-02-24T22:22:21.469Z,100.00
2023-02-24T22:25:23.031Z,100.00
2023-02-24T22:28:25.325Z,100.00
2023-02-24T22:31:27.872Z,100.00
2023-02-24T22:34:32.805Z,100.00
2023-02-24T22:37:34.761Z,100.00
2023-02-24T22:40:37.306Z,100.00
2023-02-24T22:43:39.040Z,100.00
2023-02-24T22:46:40.638Z,100.00
2023-02-24T22:49:43.909Z,100.00
2023-02-24T22:52:45.761Z,100.00
2023-02-24T22:55:47.644Z,100.00
2023-02-24T22:58:49.913Z,100.00
2023-02-24T23:01:51.541Z,100.00
2023-02-24T23:04:54.510Z,100.00
2023-02-24T23:07:56.012Z,100.00
2023-02-24T23:11:03.903Z,100.00
2023-02-24T23:14:06.824Z,100.00
2023-02-24T23:17:08.693Z,100.00
2023-02-24T23:20:15.402Z,100.00
2023-02-24T23:23:17.049Z,100.00
2023-02-24T23:26:18.784Z,100.00
2023-02-24T23:29:21.554Z,100.00
2023-02-24T23:32:23.287Z,100.00
2023-02-24T23:35:26.532Z,100.00
2023-02-24T23:38:28.151Z,100.00
2023-02-24T23:41:29.862Z,100.00
2023-02-24T23:44:31.950Z,100.00
2023-02-24T23:47:33.565Z,100.00
2023-02-24T23:50:37.800Z,100.00
2023-02-24T23:53:40.099Z,100.00
2023-02-24T23:56:41.908Z,100.00
2023-02-24T23:59:43.589Z,100.00
